Terminal Aerodrome Forecast
Issued by NWS Blacksburg, VA

Home | Current Version | Previous Version | Text Only | Print | Product List | Glossary On
Versions: 1 2 3 4 5 6 7 8 9 10 11 12 13 14 15 16 17 18 19 20 21 22 23 24 25 26
000
FTUS41 KRNK 301507 AAA
TAFBLF
TAF AMD
KBLF 301507Z 3015/3112 21005KT P6SM VCSH SCT045
     FM301700 21008KT P6SM VCTS BKN050CB
     FM302300 18007KT P6SM SCT045 BKN100
     FM310800 22005KT P6SM BKN050=

USA.gov is the U.S. government's official web portal to all federal, state and local government web resources and services.